Time;durP1;ratioP1;P1;durP2;ratioP2;P2;SDS_P1;SDS_P2;PMS_P1;PMS_P2;Temp;Humidity;BMP_temperature;BMP_pressure;BME280_temperature;BME280_humidity;BME280_pressure;Samples;Min_cycle;Max_cycle;Signal;HPM_P1;HPM_P2
2023/01/18 00:01:35;;;;;;;9.40;5.93;;;;;;;6.33;55.17;99180.47;5032376;28;20036;-71
2023/01/18 00:04:00;;;;;;;9.87;5.73;;;;;;;6.20;55.31;99179.84;5031047;28;20025;-71
2023/01/18 00:06:26;;;;;;;14.80;5.57;;;;;;;6.43;54.98;99181.16;5034234;28;20094;-71
2023/01/18 00:08:53;;;;;;;10.07;5.77;;;;;;;6.43;53.35;99181.16;5050572;28;20029;-71
2023/01/18 00:11:18;;;;;;;8.30;5.40;;;;;;;6.33;53.93;99179.63;5036356;28;20034;-71
2023/01/18 00:13:44;;;;;;;11.43;5.73;;;;;;;6.22;54.93;99180.69;5063931;28;20022;-71
2023/01/18 00:16:20;;;;;;;11.33;5.97;;;;;;;6.28;54.57;99188.34;5040220;28;20035;-71
2023/01/18 00:18:54;;;;;;;10.03;4.93;;;;;;;6.09;54.93;99182.63;5051040;28;20117;-71
2023/01/18 00:21:20;;;;;;;9.03;5.30;;;;;;;6.20;54.22;99190.22;5050633;28;20464;-71
2023/01/18 00:23:46;;;;;;;9.87;5.67;;;;;;;6.37;54.76;99191.66;5051122;28;20143;-71
2023/01/18 00:26:12;;;;;;;9.93;5.40;;;;;;;6.51;54.35;99183.59;5049179;28;20032;-71
2023/01/18 00:28:38;;;;;;;13.03;5.50;;;;;;;6.58;53.55;99187.78;5030939;28;20014;-71
2023/01/18 00:31:12;;;;;;;7.43;5.00;;;;;;;6.27;53.46;99191.81;5030589;28;20477;-71
2023/01/18 00:33:40;;;;;;;10.43;5.07;;;;;;;6.18;54.23;99192.00;5030274;28;20037;-71
2023/01/18 00:36:06;;;;;;;9.43;5.67;;;;;;;6.22;54.57;99193.66;5042617;28;20108;-71
2023/01/18 00:38:31;;;;;;;9.83;4.77;;;;;;;6.27;54.50;99191.81;5048598;28;20557;-71
2023/01/18 00:40:57;;;;;;;9.10;5.50;;;;;;;6.36;53.61;99184.75;5029894;28;20060;-71
2023/01/18 00:43:37;;;;;;;8.50;5.43;;;;;;;6.22;53.05;99188.47;5030604;28;20616;-71
2023/01/18 00:46:07;;;;;;;8.23;5.00;;;;;;;6.32;53.77;99189.16;5032951;28;20112;-71
2023/01/18 00:48:32;;;;;;;8.23;4.80;;;;;;;6.10;54.05;99188.69;5031288;28;20021;-71
2023/01/18 00:50:58;;;;;;;10.67;4.97;;;;;;;6.08;55.64;99190.44;5030825;28;20025;-71
2023/01/18 00:53:23;;;;;;;10.30;5.20;;;;;;;5.97;55.33;99194.94;5031275;28;20042;-71
2023/01/18 00:55:49;;;;;;;10.27;5.77;;;;;;;6.16;53.29;99188.56;5040906;28;20024;-70
2023/01/18 00:58:14;;;;;;;10.40;5.10;;;;;;;6.14;54.59;99195.53;5049876;28;20036;-71
2023/01/18 01:00:40;;;;;;;11.40;5.23;;;;;;;5.83;55.16;99196.03;5049641;28;20127;-71
2023/01/18 01:03:06;;;;;;;9.80;5.57;;;;;;;5.89;55.73;99190.75;5049442;28;20031;-71
2023/01/18 01:08:16;;;;;;;8.37;4.97;;;;;;;5.97;55.05;99197.53;5049653;28;20056;-71
2023/01/18 01:10:46;;;;;;;10.40;4.90;;;;;;;6.07;54.41;99204.28;5037944;28;20028;-71
2023/01/18 01:26:54;;;;;;;8.13;5.33;;;;;;;5.85;54.41;99209.84;5031354;28;20491;-71
2023/01/18 01:29:19;;;;;;;11.93;5.20;;;;;;;5.87;55.34;99208.06;5042736;28;20025;-71
2023/01/18 01:31:45;;;;;;;14.33;5.83;;;;;;;5.94;55.01;99208.81;5048200;28;20473;-71
2023/01/18 01:34:10;;;;;;;10.40;5.77;;;;;;;5.95;55.11;99208.78;5049503;28;20033;-71
2023/01/18 01:36:36;;;;;;;9.20;5.30;;;;;;;5.69;55.22;99216.16;5048268;28;20037;-71
2023/01/18 01:39:02;;;;;;;8.77;5.27;;;;;;;5.91;55.03;99225.28;5042995;28;20033;-70
2023/01/18 01:41:31;;;;;;;9.23;5.00;;;;;;;5.91;54.65;99219.25;5081757;28;20108;-71
2023/01/18 01:43:59;;;;;;;8.47;5.20;;;;;;;5.89;55.19;99208.91;5045150;28;20025;-71
2023/01/18 01:46:39;;;;;;;15.47;5.63;;;;;;;5.95;54.38;99215.72;5028774;28;20027;-72
2023/01/18 01:49:13;;;;;;;10.80;5.80;;;;;;;5.71;55.55;99219.56;5029396;28;20478;-71
2023/01/18 01:51:43;;;;;;;13.93;5.33;;;;;;;5.79;55.32;99220.28;5046308;28;20110;-71
2023/01/18 01:54:15;;;;;;;7.70;5.07;;;;;;;5.87;55.09;99223.63;5037866;28;20069;-70
2023/01/18 01:56:41;;;;;;;7.25;5.05;;;;;;;5.82;54.93;99228.00;5077466;28;20507;-70
2023/01/18 01:59:08;;;;;;;10.40;4.90;;;;;;;5.81;55.19;99228.91;5047951;28;20013;-71
2023/01/18 02:01:34;;;;;;;11.67;5.03;;;;;;;6.07;55.29;99233.69;5050331;28;20013;-71
2023/01/18 02:04:01;;;;;;;8.93;4.73;;;;;;;5.82;55.50;99233.19;5057285;28;20024;-71
2023/01/18 02:06:33;;;;;;;12.00;5.40;;;;;;;5.95;54.78;99229.53;5036600;28;20041;-71
2023/01/18 02:09:01;;;;;;;6.93;4.78;;;;;;;6.03;54.39;99229.44;5029287;28;20335;-70
2023/01/18 02:11:28;;;;;;;9.30;5.00;;;;;;;6.06;54.58;99228.53;5029447;28;20601;-71
2023/01/18 02:13:55;;;;;;;7.40;4.83;;;;;;;6.22;54.35;99229.13;5030270;28;20030;-70
2023/01/18 02:16:54;;;;;;;9.60;4.87;;;;;;;6.10;54.41;99235.41;5030348;28;20060;-70
2023/01/18 02:19:39;;;;;;;8.53;4.97;;;;;;;6.03;54.92;99234.63;5032184;28;20325;-70
2023/01/18 02:22:28;;;;;;;8.23;4.80;;;;;;;5.92;55.16;99241.69;5039713;28;20033;-70
2023/01/18 02:25:08;;;;;;;9.63;4.70;;;;;;;6.07;54.43;99227.63;5047301;28;20029;-70
2023/01/18 02:28:09;;;;;;;7.77;4.90;;;;;;;6.07;54.17;99236.28;5048032;28;20041;-71
2023/01/18 02:30:43;;;;;;;7.70;4.50;;;;;;;5.94;54.16;99239.94;5051557;28;20041;-71
2023/01/18 02:33:28;;;;;;;7.90;4.93;;;;;;;6.07;53.72;99245.78;5053769;28;20143;-71
2023/01/18 02:35:56;;;;;;;8.13;4.93;;;;;;;5.94;53.87;99240.78;5052212;28;20438;-71
2023/01/18 02:38:28;;;;;;;8.67;4.47;;;;;;;6.03;53.76;99244.13;5085036;28;20075;-70
2023/01/18 02:41:13;;;;;;;9.23;4.28;;;;;;;6.04;53.84;99246.69;5085210;28;20039;-71
2023/01/18 02:46:29;;;;;;;12.00;5.20;;;;;;;5.76;55.61;99256.66;5041985;28;20040;-70
2023/01/18 02:48:56;;;;;;;7.97;4.47;;;;;;;5.90;56.23;99256.44;5051446;28;20052;-71
2023/01/18 02:51:21;;;;;;;9.17;4.97;;;;;;;5.86;55.18;99263.38;5053610;28;20496;-71
2023/01/18 02:53:48;;;;;;;7.67;4.83;;;;;;;6.14;54.71;99256.94;5050333;28;20328;-71
2023/01/18 02:56:51;;;;;;;8.30;4.70;;;;;;;6.08;54.00;99263.09;5053638;28;20103;-70
2023/01/18 02:59:35;;;;;;;7.22;4.25;;;;;;;5.91;54.55;99259.00;5051265;28;20033;-70
2023/01/18 03:02:06;;;;;;;10.70;4.47;;;;;;;5.76;55.24;99257.50;5085309;28;20074;-71
2023/01/18 03:04:57;;;;;;;7.17;3.67;;;;;;;5.88;55.18;99256.47;5053313;28;20319;-70
2023/01/18 03:07:33;;;;;;;7.50;4.30;;;;;;;6.04;54.42;99264.00;5042739;28;20563;-70
2023/01/18 03:10:02;;;;;;;7.47;4.47;;;;;;;5.80;54.80;99258.31;5031777;28;20022;-71
2023/01/18 03:12:46;;;;;;;7.60;4.30;;;;;;;6.28;54.11;99260.16;5032039;28;20132;-71
2023/01/18 03:15:49;;;;;;;7.03;4.17;;;;;;;5.99;54.52;99264.09;5077557;28;20033;-71
2023/01/18 03:19:00;;;;;;;9.15;4.45;;;;;;;5.98;54.73;99253.75;5038634;28;20034;-71
2023/01/18 03:21:50;;;;;;;9.20;4.80;;;;;;;6.05;54.48;99252.75;5033266;28;20477;-71
2023/01/18 03:24:18;;;;;;;10.23;4.80;;;;;;;6.03;53.91;99255.38;5046913;28;20118;-70
2023/01/18 03:26:49;;;;;;;8.50;3.87;;;;;;;6.14;53.92;99263.00;5042768;28;20065;-71
2023/01/18 03:35:15;;;;;;;7.73;4.17;;;;;;;5.91;54.87;99260.75;5052233;28;20529;-70
2023/01/18 03:37:43;;;;;;;6.97;4.23;;;;;;;6.17;53.57;99268.13;5046709;28;20123;-71
2023/01/18 03:40:10;;;;;;;9.77;4.73;;;;;;;6.14;53.27;99264.72;5033285;28;20048;-70
2023/01/18 03:42:50;;;;;;;7.37;4.13;;;;;;;5.89;53.90;99263.38;5049390;28;20028;-71
2023/01/18 03:45:25;;;;;;;8.23;4.67;;;;;;;6.06;54.40;99264.84;5038281;28;20030;-71
2023/01/18 03:47:51;;;;;;;8.37;4.47;;;;;;;6.15;54.39;99269.03;5046776;28;20037;-71
2023/01/18 03:50:17;;;;;;;6.67;4.07;;;;;;;6.17;53.78;99270.72;5049884;28;20029;-71
2023/01/18 03:52:47;;;;;;;9.33;4.20;;;;;;;6.06;54.27;99264.84;5036122;28;20049;-71
2023/01/18 03:55:22;;;;;;;11.90;4.37;;;;;;;6.00;53.13;99262.34;5031465;28;20040;-71
2023/01/18 03:57:59;;;;;;;8.30;4.43;;;;;;;6.13;52.98;99263.88;5039820;28;20067;-70
2023/01/18 04:00:25;;;;;;;10.80;4.03;;;;;;;6.12;53.08;99275.13;5045498;28;20106;-70
2023/01/18 04:02:51;;;;;;;8.80;4.30;;;;;;;6.05;53.63;99276.94;5051337;28;20021;-71
2023/01/18 04:05:17;;;;;;;8.37;4.50;;;;;;;6.18;53.20;99274.16;5045386;28;20049;-70
2023/01/18 04:07:43;;;;;;;9.37;4.30;;;;;;;6.12;53.06;99277.72;5049204;28;20094;-70
2023/01/18 04:10:09;;;;;;;11.00;4.30;;;;;;;6.07;53.08;99287.31;5049759;28;20037;-71
2023/01/18 04:12:35;;;;;;;9.70;4.27;;;;;;;5.71;53.84;99286.97;5049726;28;20037;-71
2023/01/18 04:15:02;;;;;;;8.93;4.07;;;;;;;5.88;54.14;99277.19;5050113;28;20040;-71
2023/01/18 04:17:27;;;;;;;12.73;4.10;;;;;;;5.98;53.17;99277.09;5051429;28;20063;-70
2023/01/18 04:19:53;;;;;;;7.40;3.90;;;;;;;5.97;53.21;99281.38;5048277;28;20064;-70
2023/01/18 04:22:18;;;;;;;8.37;3.83;;;;;;;5.93;53.30;99280.59;5049496;28;20863;-70
2023/01/18 04:24:44;;;;;;;7.57;4.10;;;;;;;6.04;53.24;99287.34;5032506;28;20037;-70
2023/01/18 04:27:10;;;;;;;7.80;3.53;;;;;;;5.81;53.57;99280.78;5031497;28;20037;-70
2023/01/18 04:29:35;;;;;;;7.63;4.47;;;;;;;6.00;53.54;99286.53;5041973;28;20044;-70
2023/01/18 04:32:00;;;;;;;6.40;3.73;;;;;;;5.84;54.05;99285.91;5045833;28;20095;-71
2023/01/18 04:34:26;;;;;;;9.23;4.10;;;;;;;5.91;54.27;99292.72;5030202;28;20026;-70
2023/01/18 04:36:52;;;;;;;9.40;4.10;;;;;;;6.04;53.63;99289.97;5032185;28;20033;-70
2023/01/18 04:39:18;;;;;;;9.87;4.03;;;;;;;5.71;53.68;99299.94;5046114;28;20079;-70
2023/01/18 04:41:43;;;;;;;7.90;3.70;;;;;;;5.92;52.68;99299.63;5043232;28;20084;-70
2023/01/18 04:44:09;;;;;;;13.60;4.40;;;;;;;6.11;52.71;99299.34;5041767;28;20028;-71
2023/01/18 04:46:36;;;;;;;7.07;3.77;;;;;;;6.07;54.50;99300.28;5083393;28;20029;-70
2023/01/18 04:49:02;;;;;;;8.80;3.67;;;;;;;6.17;53.54;99307.03;5050245;28;20118;-71
2023/01/18 04:51:30;;;;;;;7.17;4.07;;;;;;;6.27;53.13;99300.81;5050713;28;20045;-71
2023/01/18 04:53:55;;;;;;;8.83;3.97;;;;;;;6.06;53.19;99306.38;5050465;28;20033;-71
2023/01/18 04:56:21;;;;;;;8.37;3.80;;;;;;;6.31;52.52;99313.75;5050885;28;20090;-71
2023/01/18 04:58:46;;;;;;;7.40;4.13;;;;;;;6.23;52.81;99306.94;5049530;28;20029;-71
2023/01/18 05:01:12;;;;;;;8.50;4.20;;;;;;;5.95;53.44;99309.94;5050795;28;20031;-70
2023/01/18 05:03:41;;;;;;;8.20;3.37;;;;;;;5.49;55.05;99318.38;5042366;28;20037;-71
2023/01/18 05:06:08;;;;;;;6.13;3.63;;;;;;;5.08;56.48;99309.38;5031207;28;20041;-70
2023/01/18 05:08:34;;;;;;;6.27;3.40;;;;;;;5.82;55.15;99329.16;5030656;28;20037;-70
2023/01/18 05:11:04;;;;;;;7.47;3.40;;;;;;;5.55;55.15;99320.91;5030402;28;20502;-71
2023/01/18 05:13:30;;;;;;;11.50;4.57;;;;;;;5.83;54.78;99320.50;5038719;28;20037;-71
2023/01/18 05:15:57;;;;;;;10.03;4.30;;;;;;;5.63;55.11;99320.78;5049625;28;20040;-71
2023/01/18 05:18:22;;;;;;;15.50;4.00;;;;;;;5.64;56.07;99313.88;5038738;28;20044;-70
2023/01/18 05:20:48;;;;;;;6.73;3.60;;;;;;;5.69;55.59;99322.44;5046359;28;20026;-70
2023/01/18 05:23:13;;;;;;;10.17;5.47;;;;;;;5.86;55.23;99319.59;5028739;28;20036;-70
2023/01/18 05:25:39;;;;;;;11.57;4.10;;;;;;;5.88;55.17;99331.66;5045071;28;20021;-71
2023/01/18 05:28:06;;;;;;;14.93;4.20;;;;;;;5.55;55.93;99326.06;5031130;28;20670;-70
2023/01/18 05:30:31;;;;;;;10.40;6.40;;;;;;;5.47;56.31;99324.44;5035800;28;20332;-70
2023/01/18 05:32:57;;;;;;;8.50;3.93;;;;;;;5.60;56.50;99329.47;5031801;28;20104;-70
2023/01/18 05:35:22;;;;;;;9.63;3.87;;;;;;;5.63;56.33;99332.88;5028792;28;20486;-70
2023/01/18 05:37:48;;;;;;;8.20;3.97;;;;;;;5.54;56.71;99332.13;5035712;28;20182;-70
2023/01/18 05:40:13;;;;;;;14.57;4.83;;;;;;;5.82;55.39;99338.69;5048151;28;20064;-70
2023/01/18 05:42:39;;;;;;;11.33;4.30;;;;;;;5.59;56.34;99338.13;5047371;28;20078;-70
2023/01/18 05:45:05;;;;;;;12.87;5.00;;;;;;;5.43;56.16;99341.78;5048846;28;20040;-70
2023/01/18 05:47:30;;;;;;;14.50;4.93;;;;;;;5.54;56.62;99339.91;5050490;28;20021;-70
2023/01/18 05:49:56;;;;;;;10.67;4.17;;;;;;;5.30;57.67;99341.06;5048074;28;20783;-70
2023/01/18 05:52:22;;;;;;;17.03;4.73;;;;;;;5.59;57.62;99348.50;5049965;28;20029;-70
2023/01/18 05:54:47;;;;;;;9.67;4.40;;;;;;;5.54;57.92;99339.91;5029452;28;20194;-70
2023/01/18 05:57:13;;;;;;;9.13;4.90;;;;;;;5.79;57.89;99349.94;5028628;28;20109;-70
2023/01/18 05:59:38;;;;;;;8.50;4.17;;;;;;;5.81;58.18;99345.59;5049223;28;20094;-70
2023/01/18 06:02:04;;;;;;;8.07;3.90;;;;;;;6.07;56.95;99350.44;5048365;28;20512;-70
2023/01/18 06:04:29;;;;;;;9.63;4.20;;;;;;;5.88;57.06;99357.59;5029343;28;20124;-70
2023/01/18 06:06:55;;;;;;;11.90;4.50;;;;;;;6.14;56.66;99356.41;5047048;28;20484;-70
2023/01/18 06:09:20;;;;;;;7.70;3.87;;;;;;;5.87;57.12;99353.28;5049789;28;20060;-70
2023/01/18 06:11:45;;;;;;;7.83;4.20;;;;;;;5.70;57.82;99350.94;5047825;28;20492;-70
2023/01/18 06:14:11;;;;;;;6.90;3.53;;;;;;;5.92;57.52;99354.09;5045815;28;20068;-70
2023/01/18 06:16:36;;;;;;;8.50;3.70;;;;;;;5.92;56.24;99361.88;5081500;28;20094;-70
2023/01/18 06:19:02;;;;;;;9.73;3.87;;;;;;;6.39;55.69;99356.84;5049697;28;20029;-70
2023/01/18 06:21:27;;;;;;;8.47;4.73;;;;;;;5.92;56.33;99367.06;5049556;28;20037;-70
2023/01/18 06:23:53;;;;;;;11.53;4.37;;;;;;;5.97;57.76;99363.53;5050628;28;20500;-70
2023/01/18 06:26:18;;;;;;;8.50;4.10;;;;;;;5.95;56.20;99367.00;5043578;28;20382;-70
2023/01/18 06:28:43;;;;;;;16.60;5.50;;;;;;;5.97;57.32;99368.72;5040302;28;20077;-70
2023/01/18 06:31:10;;;;;;;10.20;4.90;;;;;;;5.80;57.89;99361.16;5047707;28;20412;-70
2023/01/18 06:33:35;;;;;;;10.33;4.13;;;;;;;5.95;58.02;99377.38;5047536;28;20025;-70
2023/01/18 06:36:01;;;;;;;7.17;4.07;;;;;;;5.82;57.49;99375.81;5049236;28;20040;-70
2023/01/18 06:38:26;;;;;;;9.43;4.27;;;;;;;5.71;57.85;99383.75;5048381;28;20493;-70
2023/01/18 06:40:51;;;;;;;11.33;4.60;;;;;;;5.97;57.21;99389.47;5050849;28;20036;-70
2023/01/18 06:43:17;;;;;;;9.13;4.10;;;;;;;5.10;59.66;99390.53;5050027;28;20379;-70
2023/01/18 06:45:42;;;;;;;7.40;4.00;;;;;;;5.78;59.64;99390.59;5046811;28;20032;-70
2023/01/18 06:48:08;;;;;;;8.07;3.90;;;;;;;5.51;59.83;99396.97;5048118;28;20036;-69
2023/01/18 06:50:33;;;;;;;12.33;4.67;;;;;;;5.85;57.83;99406.94;5048519;28;20025;-69
2023/01/18 06:52:59;;;;;;;7.47;4.37;;;;;;;5.85;57.59;99406.94;5032915;28;20040;-70
2023/01/18 06:55:25;;;;;;;13.83;5.33;;;;;;;5.67;58.70;99407.16;5046685;28;20080;-70
2023/01/18 06:57:50;;;;;;;9.70;4.10;;;;;;;5.36;60.38;99407.53;5044937;28;20191;-69
2023/01/18 07:00:16;;;;;;;10.47;5.03;;;;;;;5.18;61.41;99414.63;5047462;28;20032;-70
2023/01/18 07:02:42;;;;;;;8.57;4.40;;;;;;;5.20;61.43;99406.84;5039424;28;20044;-69
2023/01/18 07:05:07;;;;;;;10.20;4.27;;;;;;;5.10;61.85;99412.09;5048145;28;20049;-69
2023/01/18 07:07:33;;;;;;;12.50;5.70;;;;;;;5.49;61.35;99419.44;5048375;28;20021;-73
2023/01/18 07:09:58;;;;;;;7.90;4.40;;;;;;;5.28;60.64;99414.53;5050360;28;20392;-69
2023/01/18 07:12:24;;;;;;;9.97;4.90;;;;;;;5.45;61.28;99422.94;5030212;28;20033;-70
2023/01/18 07:14:50;;;;;;;12.23;5.23;;;;;;;5.41;62.35;99421.28;5041150;28;20400;-69
2023/01/18 07:17:15;;;;;;;8.93;4.90;;;;;;;5.86;59.26;99423.34;5048874;28;20028;-70
2023/01/18 07:19:41;;;;;;;13.93;4.83;;;;;;;5.06;62.02;99419.94;5051945;28;20025;-69
2023/01/18 07:22:06;;;;;;;9.07;6.20;;;;;;;5.21;61.04;99424.94;5041475;28;20396;-70
2023/01/18 07:24:31;;;;;;;9.90;5.73;;;;;;;5.57;60.98;99432.34;5044619;28;20493;-70
2023/01/18 07:27:00;;;;;;;17.40;6.37;;;;;;;5.40;60.36;99435.13;5031914;28;20025;-70
2023/01/18 07:29:26;;;;;;;12.87;6.00;;;;;;;5.84;60.72;99446.69;5032532;28;20029;-70
2023/01/18 07:31:51;;;;;;;13.67;5.50;;;;;;;5.40;61.30;99437.72;5076819;28;20813;-70
2023/01/18 07:34:17;;;;;;;12.27;5.87;;;;;;;5.97;59.66;99439.59;5052565;28;20032;-70
2023/01/18 07:36:43;;;;;;;11.53;5.37;;;;;;;5.79;59.71;99448.47;5039107;28;20056;-70
2023/01/18 07:39:09;;;;;;;10.67;5.30;;;;;;;5.67;60.46;99449.47;5033230;28;20068;-70
2023/01/18 07:41:34;;;;;;;13.40;5.60;;;;;;;5.54;61.47;99443.59;5040921;28;20028;-70
2023/01/18 07:44:00;;;;;;;12.90;6.70;;;;;;;5.52;61.55;99450.53;5049485;28;20480;-70
2023/01/18 07:46:26;;;;;;;14.73;5.77;;;;;;;5.72;60.17;99452.03;5052900;28;20389;-70
2023/01/18 07:48:52;;;;;;;18.37;6.40;;;;;;;5.71;61.30;99455.50;5053687;28;20028;-70
2023/01/18 07:51:20;;;;;;;11.20;6.27;;;;;;;5.90;60.89;99462.16;5044637;28;20021;-70
2023/01/18 07:53:46;;;;;;;12.87;6.03;;;;;;;5.37;61.02;99477.47;5043606;28;20385;-69
2023/01/18 07:56:14;;;;;;;9.63;5.33;;;;;;;5.35;62.58;99470.59;5035696;28;20044;-70
2023/01/18 07:58:40;;;;;;;16.37;6.33;;;;;;;5.13;62.71;99475.97;5031630;28;20392;-70
2023/01/18 08:01:08;;;;;;;10.90;6.40;;;;;;;5.69;62.98;99478.00;5031624;28;20040;-70
2023/01/18 08:03:35;;;;;;;13.43;6.43;;;;;;;6.19;60.39;99473.91;5032792;28;20028;-70
2023/01/18 08:06:01;;;;;;;13.83;6.17;;;;;;;6.34;60.17;99478.03;5051640;28;20045;-70
2023/01/18 08:08:27;;;;;;;11.20;6.57;;;;;;;6.19;60.09;99488.66;5050941;28;20041;-70
2023/01/18 08:10:58;;;;;;;13.87;7.03;;;;;;;6.40;58.31;99487.47;5052030;28;20079;-70
2023/01/18 08:13:24;;;;;;;14.33;6.70;;;;;;;6.49;58.61;99481.31;5052176;28;20044;-70
2023/01/18 08:15:50;;;;;;;18.97;8.53;;;;;;;5.86;59.15;99495.94;5050710;28;20468;-70
2023/01/18 08:18:16;;;;;;;13.30;7.80;;;;;;;6.43;58.59;99497.84;5083696;28;20025;-70
2023/01/18 08:20:43;;;;;;;15.70;6.93;;;;;;;6.37;58.53;99492.72;5083688;28;20120;-70
2023/01/18 08:23:08;;;;;;;15.93;6.87;;;;;;;6.18;58.34;99503.38;5051096;28;20072;-70
2023/01/18 08:25:34;;;;;;;14.57;7.77;;;;;;;6.40;58.66;99500.47;5047975;28;20052;-70
2023/01/18 08:28:01;;;;;;;13.87;7.27;;;;;;;6.43;58.75;99503.03;5031938;28;20527;-70
2023/01/18 08:30:29;;;;;;;12.80;6.57;;;;;;;6.44;59.04;99504.72;5044150;28;20473;-70
2023/01/18 08:32:56;;;;;;;17.23;6.77;;;;;;;6.24;59.31;99507.63;5049929;28;20029;-70
2023/01/18 08:35:23;;;;;;;11.87;7.27;;;;;;;6.39;58.97;99506.56;5050434;28;20473;-70
2023/01/18 08:37:49;;;;;;;12.37;7.47;;;;;;;6.51;57.51;99505.50;5083329;28;20047;-70
2023/01/18 08:40:14;;;;;;;12.83;7.13;;;;;;;6.19;59.11;99514.59;5050502;28;20029;-70
2023/01/18 08:42:40;;;;;;;13.50;7.10;;;;;;;6.62;57.70;99509.66;5051790;28;20029;-70
2023/01/18 08:45:06;;;;;;;14.90;7.50;;;;;;;6.51;57.95;99521.06;5050597;28;20029;-70
2023/01/18 08:47:31;;;;;;;11.33;6.47;;;;;;;6.75;57.16;99519.88;5035365;28;20152;-70
2023/01/18 08:49:56;;;;;;;11.47;7.27;;;;;;;6.39;59.18;99517.78;5030643;28;20116;-70
2023/01/18 08:52:22;;;;;;;16.50;7.97;;;;;;;6.37;59.20;99526.47;5047263;28;20589;-70
2023/01/18 08:54:47;;;;;;;14.23;6.90;;;;;;;7.05;57.35;99525.47;5051557;28;20039;-70
2023/01/18 08:57:13;;;;;;;11.33;7.20;;;;;;;6.97;57.53;99530.78;5046810;28;20021;-70
2023/01/18 08:59:38;;;;;;;20.07;8.30;;;;;;;7.00;57.60;99532.47;5043015;28;20028;-70
2023/01/18 09:02:03;;;;;;;15.80;8.27;;;;;;;6.91;57.40;99530.84;5049227;28;20036;-70
2023/01/18 09:04:29;;;;;;;14.57;7.00;;;;;;;6.31;58.90;99532.59;5050611;28;20453;-70
2023/01/18 09:06:54;;;;;;;15.23;7.30;;;;;;;6.44;59.09;99541.06;5048669;28;20461;-70
2023/01/18 09:09:20;;;;;;;13.27;7.10;;;;;;;6.96;59.39;99540.31;5051272;28;20043;-70
2023/01/18 09:11:45;;;;;;;14.60;7.63;;;;;;;6.92;57.97;99546.44;5050583;28;20020;-70
2023/01/18 09:14:10;;;;;;;17.40;7.60;;;;;;;6.65;59.29;99555.50;5050783;28;20032;-70
2023/01/18 09:16:36;;;;;;;11.93;6.90;;;;;;;6.65;59.12;99557.22;5030539;28;20448;-70
2023/01/18 09:19:05;;;;;;;18.23;7.43;;;;;;;6.61;60.65;99548.63;5040113;28;20027;-70
2023/01/18 09:21:30;;;;;;;16.83;6.60;;;;;;;6.42;61.66;99548.88;5049081;28;20031;-69
2023/01/18 09:23:58;;;;;;;11.90;6.60;;;;;;;6.62;60.30;99555.53;5049971;28;20029;-70
2023/01/18 09:26:23;;;;;;;14.07;7.00;;;;;;;6.91;59.33;99568.09;5049259;28;20025;-70
2023/01/18 09:28:51;;;;;;;14.47;7.60;;;;;;;7.38;57.86;99564.78;5049528;28;20089;-70
2023/01/18 09:31:17;;;;;;;19.07;9.80;;;;;;;7.05;60.16;99572.25;5049493;28;20127;-70
2023/01/18 09:33:43;;;;;;;19.67;7.73;;;;;;;6.83;59.99;99569.06;5049598;28;20040;-70
2023/01/18 09:36:11;;;;;;;20.13;7.30;;;;;;;7.22;58.46;99572.81;5048976;28;20480;-70
2023/01/18 09:38:38;;;;;;;14.07;6.93;;;;;;;7.21;57.64;99576.31;5049388;28;20504;-70
2023/01/18 09:41:24;;;;;;;13.77;6.93;;;;;;;6.82;59.75;99573.44;5080252;28;20064;-70
2023/01/18 09:43:54;;;;;;;14.20;6.50;;;;;;;7.67;58.39;99579.00;5049941;28;20017;-70
2023/01/18 09:46:22;;;;;;;12.23;6.77;;;;;;;7.30;58.65;99570.94;5050607;28;20029;-70
2023/01/18 09:48:59;;;;;;;10.60;6.50;;;;;;;7.60;58.00;99562.66;5047927;28;20017;-70
2023/01/18 09:51:40;;;;;;;10.27;5.47;;;;;;;8.03;56.60;99566.19;5041359;28;20078;-70
2023/01/18 09:54:22;;;;;;;12.77;6.13;;;;;;;7.40;57.63;99575.97;5049340;28;20060;-70
2023/01/18 09:57:16;;;;;;;15.27;7.47;;;;;;;7.03;59.64;99577.44;5048726;28;20032;-70
2023/01/18 09:59:52;;;;;;;11.73;6.03;;;;;;;7.44;59.06;99573.28;5053551;28;20438;-70
2023/01/18 10:02:22;;;;;;;14.03;7.13;;;;;;;7.39;58.57;99574.25;5040111;28;20124;-70
2023/01/18 10:04:59;;;;;;;11.50;6.40;;;;;;;7.13;58.83;99576.41;5066586;28;20017;-70
2023/01/18 10:07:28;;;;;;;10.93;6.37;;;;;;;7.72;59.19;99570.22;5048764;28;20392;-70
2023/01/18 10:09:55;;;;;;;11.73;6.60;;;;;;;7.08;59.23;99574.78;5048130;28;20028;-71
2023/01/18 10:12:53;;;;;;;10.07;6.07;;;;;;;7.65;58.37;99566.00;5041980;28;20437;-70
2023/01/18 10:15:32;;;;;;;8.87;6.23;;;;;;;7.84;57.80;99571.72;5046751;28;20040;-70
2023/01/18 10:17:59;;;;;;;16.50;7.00;;;;;;;8.71;55.97;99569.97;5048473;28;20025;-71
2023/01/18 10:20:56;;;;;;;13.23;6.40;;;;;;;8.39;56.35;99576.72;5049535;28;20025;-71
2023/01/18 10:23:52;;;;;;;11.20;5.53;;;;;;;8.25;56.53;99577.84;5048182;28;20476;-71
2023/01/18 10:26:27;;;;;;;9.43;5.53;;;;;;;8.99;54.61;99576.28;5048630;28;20400;-71
2023/01/18 10:29:05;;;;;;;15.77;5.27;;;;;;;8.79;54.68;99578.47;5050257;28;20548;-71
2023/01/18 10:31:39;;;;;;;7.73;4.67;;;;;;;8.59;55.53;99581.53;5049292;28;20043;-71
2023/01/18 10:34:16;;;;;;;9.80;4.63;;;;;;;8.92;54.22;99577.31;5047242;28;20404;-70
2023/01/18 10:36:46;;;;;;;8.40;4.53;;;;;;;9.48;52.18;99586.41;5047240;28;20028;-70
2023/01/18 10:39:31;;;;;;;8.20;4.43;;;;;;;8.86;54.26;99587.91;5032419;28;20034;-72
2023/01/18 10:42:00;;;;;;;6.87;4.40;;;;;;;8.92;54.10;99585.13;5042678;28;20074;-71
2023/01/18 10:44:26;;;;;;;12.53;4.53;;;;;;;8.84;52.74;99592.28;5044733;28;20172;-71
2023/01/18 10:46:57;;;;;;;7.67;4.37;;;;;;;9.52;52.04;99590.66;5039284;28;20029;-71
2023/01/18 10:49:55;;;;;;;5.67;3.60;;;;;;;9.72;51.59;99584.06;5049679;28;20034;-71
2023/01/18 10:52:29;;;;;;;6.47;3.87;;;;;;;10.34;49.38;99576.28;5047358;28;20041;-71
2023/01/18 10:55:00;;;;;;;7.63;3.53;;;;;;;9.25;50.78;99594.81;5051612;28;20071;-71
2023/01/18 10:57:35;;;;;;;6.83;4.30;;;;;;;9.68;50.37;99581.53;5048787;28;20208;-70
2023/01/18 11:00:11;;;;;;;6.63;3.80;;;;;;;9.38;49.84;99597.97;5060166;28;20036;-71
2023/01/18 11:02:37;;;;;;;8.03;3.77;;;;;;;9.87;50.57;99586.25;5052413;28;20110;-71
2023/01/18 11:05:29;;;;;;;9.10;3.73;;;;;;;9.66;49.56;99593.75;5032327;28;20100;-71
2023/01/18 11:08:24;;;;;;;14.57;3.80;;;;;;;10.14;49.93;99579.44;5033452;28;20125;-71
2023/01/18 11:11:06;;;;;;;7.43;3.63;;;;;;;9.20;51.28;99594.91;5032395;28;20497;-72
2023/01/18 11:13:48;;;;;;;10.23;3.75;;;;;;;8.72;51.36;99597.75;5045357;28;20560;-72
2023/01/18 11:16:19;;;;;;;11.05;3.97;;;;;;;8.91;52.65;99606.88;5043044;28;20142;-72
2023/01/18 11:19:00;;;;;;;9.77;4.30;;;;;;;8.93;52.04;99597.28;5032462;28;20448;-71
2023/01/18 11:21:39;;;;;;;9.53;4.00;;;;;;;9.49;51.83;99603.75;5032644;28;20029;-71
2023/01/18 11:24:09;;;;;;;13.27;3.97;;;;;;;9.50;51.15;99605.47;5033732;28;20018;-71
2023/01/18 11:26:50;;;;;;;9.37;3.70;;;;;;;8.90;51.88;99612.13;5043538;28;20451;-72
2023/01/18 11:29:16;;;;;;;6.10;3.73;;;;;;;9.65;50.88;99609.47;5036571;28;20025;-72
2023/01/18 11:31:46;;;;;;;6.77;3.73;;;;;;;9.89;49.67;99605.38;5052914;28;20024;-72
2023/01/18 11:34:26;;;;;;;10.07;4.13;;;;;;;8.74;52.64;99607.25;5050538;28;20444;-72
2023/01/18 11:36:53;;;;;;;7.57;4.07;;;;;;;9.00;52.60;99609.28;5052545;28;20086;-72
2023/01/18 11:39:24;;;;;;;10.53;4.50;;;;;;;9.72;52.35;99603.19;5051303;28;20559;-72
2023/01/18 11:41:51;;;;;;;7.30;3.13;;;;;;;9.13;53.10;99614.19;5050248;28;20492;-72
2023/01/18 11:44:29;;;;;;;9.93;3.90;;;;;;;9.80;52.05;99613.44;5053039;28;20033;-72
2023/01/18 11:47:02;;;;;;;8.07;3.43;;;;;;;9.17;53.06;99621.06;5052179;28;20481;-72
2023/01/18 11:49:37;;;;;;;10.30;3.40;;;;;;;9.51;52.31;99617.63;5051312;28;20037;-72
2023/01/18 11:52:12;;;;;;;12.60;3.43;;;;;;;9.23;52.90;99620.94;5047366;28;20691;-72
2023/01/18 11:54:47;;;;;;;8.20;3.27;;;;;;;9.28;53.20;99623.41;5032178;28;20021;-72
2023/01/18 11:57:18;;;;;;;5.43;3.60;;;;;;;9.70;52.71;99620.63;5040883;28;20384;-72
2023/01/18 11:59:45;;;;;;;9.30;3.10;;;;;;;9.78;51.98;99617.81;5045258;28;20441;-73
2023/01/18 12:02:35;;;;;;;6.73;3.07;;;;;;;9.61;52.36;99621.72;5037717;28;20036;-72
2023/01/18 12:05:16;;;;;;;4.07;2.53;;;;;;;9.27;51.67;99604.31;5051436;28;20060;-72
2023/01/18 12:07:44;;;;;;;4.80;2.53;;;;;;;9.59;52.29;99601.78;5052182;28;20028;-72
2023/01/18 12:10:22;;;;;;;7.27;2.50;;;;;;;9.93;51.60;99595.69;5051447;28;20021;-72
2023/01/18 12:13:25;;;;;;;9.17;2.50;;;;;;;9.79;51.41;99602.13;5050645;28;20033;-73
2023/01/18 12:16:09;;;;;;;10.07;2.55;;;;;;;10.64;50.21;99606.78;5050658;28;20051;-72